Flight Track Log - Related Links

Times and Time Zones

All times are in EDT time to prevent confusion due to time zone crossing. See the UCA597 flight status page for this flight to view local times or setup timezone preferences in your user account.

Time Position Orientation Groundspeed Altitude Reporting Facility
EDT Latitude Longitude Course Direction KTS MPH feet Rate Location/Type
Sun 06:02:19 PM 39.0283 -77.4461 352° North 176 203 3,200  Level Washington Center
Sun 06:03:19 PM 39.0761 -77.4553 352° North 176 203 4,700 1,488 Climbing Washington Center
Sun 06:04:20 PM 39.1200 -77.4564 359° North 176 203 6,200 1,412 Climbing Washington Center
Sun 06:05:18 PM 39.1678 -77.4575 359° North 176 203 7,500 1,412 Climbing Washington Center
Sun 06:06:19 PM 39.2158 -77.4561 North 176 203 9,000 1,121 Climbing Washington Center
Sun 06:08:20 PM 39.3219 -77.4614 358° North 176 203 10,900 1,006 Climbing Washington Center
Sun 06:09:18 PM 39.3783 -77.4603 North 181 208 12,000 1,008 Climbing Washington Center
Sun 06:10:19 PM 39.4303 -77.4589 North 186 214 12,900 955 Climbing Washington Center
Sun 06:12:39 PM 39.5589 -77.4578 360° North 186 214 15,200 1,020 Climbing New York Center
Sun 06:13:39 PM 39.6114 -77.4544 North 186 214 16,300 1,250 Climbing New York Center
Sun 06:14:39 PM 39.6594 -77.4536 North 175 201 17,700 1,150 Climbing New York Center
Sun 06:15:39 PM 39.7053 -77.4528 North 165 190 18,600 650 Climbing New York Center
Sun 06:16:39 PM 39.7533 -77.4519 North 165 190 19,000 200 Climbing New York Center
Sun 06:17:39 PM 39.8139 -77.4522 360° North 190 219 19,000  Level New York Center
Sun 06:18:39 PM 39.8786 -77.4503 North 222 255 19,000  Level New York Center
Sun 06:19:39 PM 39.9453 -77.4511 359° North 234 269 19,000  Level New York Center
Sun 06:20:39 PM 40.0142 -77.4497 North 234 269 19,000  Level New York Center
Sun 06:21:39 PM 40.0808 -77.4478 North 234 269 19,000  Level New York Center
Sun 06:22:39 PM 40.1517 -77.4492 359° North 239 275 19,000  Level New York Center
Sun 06:23:39 PM 40.2186 -77.4475 North 239 275 19,000  Level New York Center
Sun 06:24:39 PM 40.2811 -77.4453 North 239 275 19,000  Level New York Center
Sun 06:25:39 PM 40.3561 -77.4472 359° North 239 275 19,000  Level New York Center
Sun 06:26:39 PM 40.4167 -77.4475 360° North 239 275 19,000  Level New York Center
Sun 06:27:39 PM 40.4919 -77.4439 North 239 275 19,000 -350 Level New York Center
Sun 06:28:39 PM 40.5544 -77.4417 North 239 275 18,300 -550 Descending New York Center
Sun 06:29:39 PM 40.6358 -77.4414 360° North 254 292 17,900 -600 Descending New York Center
Sun 06:30:39 PM 40.7133 -77.4353 North 261 300 17,100 -450 Descending New York Center
Sun 06:31:39 PM 40.7806 -77.3869 29° Northeast 267 307 17,000 -50 Descending New York Center
Sun 06:32:39 PM 40.8419 -77.3353 32° Northeast 262 302 17,000  Level New York Center
Sun 06:33:39 PM 40.9033 -77.2781 35° Northeast 262 302 17,000  Level New York Center
Sun 06:34:39 PM 40.9625 -77.2261 34° Northeast 262 302 17,000  Level New York Center
Sun 06:35:39 PM 41.0217 -77.1739 34° Northeast 257 296 17,000  Level New York Center
Sun 06:36:39 PM 41.0806 -77.1217 34° Northeast 252 290 17,000  Level New York Center
Sun 06:37:39 PM 41.1400 -77.0664 35° Northeast 252 290 17,000  Level New York Center
Sun 06:38:39 PM 41.2011 -77.0142 33° Northeast 252 290 17,000  Level New York Center
Sun 06:39:39 PM 41.2600 -76.9589 35° Northeast 252 290 17,000  Level New York Center
Sun 06:40:39 PM 41.3192 -76.9064 34° Northeast 252 290 17,000  Level New York Center
Sun 06:41:39 PM 41.3800 -76.8567 32° Northeast 252 290 17,000  Level New York Center
Sun 06:42:39 PM 41.4392 -76.8011 35° Northeast 252 290 17,000  Level New York Center
Sun 06:43:39 PM 41.4981 -76.7481 34° Northeast 252 290 17,000  Level New York Center
Sun 06:44:39 PM 41.5528 -76.6922 37° Northeast 252 290 17,000 -350 Level New York Center
Sun 06:45:39 PM 41.6072 -76.6442 33° Northeast 252 290 16,300 -900 Descending New York Center
Sun 06:46:39 PM 41.6794 -76.5783 34° Northeast 269 310 15,200 -1,050 Descending New York Center
Sun 06:47:39 PM 41.7425 -76.5200 35° Northeast 277 319 14,200 -1,150 Descending New York Center
Sun 06:48:39 PM 41.8014 -76.4664 34° Northeast 277 319 12,900 -1,400 Descending New York Center
Sun 06:49:39 PM 41.8625 -76.4078 36° Northeast 272 313 11,400 -1,550 Descending New York Center
Sun 06:50:39 PM 41.9136 -76.3367 46° Northeast 267 307 9,800 -1,650 Descending New York Center
Sun 06:51:39 PM 41.9731 -76.2664 41° Northeast 260 299 8,100 -1,550 Descending New York Center
Sun 06:52:39 PM 42.0239 -76.2064 41° Northeast 248 285 6,700 -1,350 Descending New York Center
Sun 06:53:39 PM 42.0622 -76.1425 51° Northeast 248 285 5,400 -1,200 Descending New York Center
Sun 06:54:39 PM 42.0822 -76.0658 71° East 226 260 4,300 1,800 Descending New York Center
Sun 06:55:39 PM 42.1056 -76.0092 61° Northeast 206 237 9,000 -650 Climbing New York Center
Sun 06:56:39 PM 42.1286 -75.9550 60° Northeast 177 204 3,000 -3,300 Descending New York Center
Sun 06:57:39 PM 42.1647 -75.9439 13° North 132 152 2,400 -450 Descending New York Center
Sun 06:58:39 PM 42.2008 -75.9272 19° North 117 135 2,100 3,300 Descending New York Center
Sun 06:59:39 PM 42.2328 -75.9100 22° Northeast 117 135 9,000 6,900 Climbing New York Center
Sun 07:01:00 PM 42.2000 -75.9667 251° West  Level FlightAware Approximate
Sun 07:08:00 PM 42.2084 -75.9796 251° West  Level Estimated
Sun 07:09:00 PM 42.2084 -75.9796 251° West  Level Estimated

Login

Don't have an account? Register now (free) for customized features, flight alerts, and more!